Historyczne dane pomiarowe

Dodano dane terminowe – wersja testowa.

Dane z okresu 1951-2019

Wersja bazy: 1.34 [2019-03-16, lista zmian], aktualizacja planowana na 2019-04-15

Dane meteo z obszaru Polski uzyskane na podstawie danych udostępnionych przez Instytut Meteorologii i Gospodarki Wodnej – Państwowy Instytut Badawczy.

 

Wybierz Datę:    

       

TemperaturaWilgotnośćZachmurzenieWiatrCiśnienieWidzialnośćZjawiska
 Data    tng td wb rh cc ccl cl cm ch dir g1 g2 mslp ppp      
1994-09-29 00:00:00 1.7--- 0.2 1.089wxwx2wx--- 805.3 0.0---wxw1
1994-09-29 01:00:00 2.3--- -0.7 1.181wxwxwx3wx--- 805.2----wx
1994-09-29 02:00:00 2.2--- 0.4 1.488wxwxwx3wx--- 805.2----wx
1994-09-29 03:00:00 2.3--- -1.2 0.977wxwx1wx--- 805.0----wx
1994-09-29 04:00:00 4.1--- -5.7 0.449wxwx4wx--- 805.1----wx
1994-09-29 05:00:00 4.4--- -7.0 0.343wxwxwx6wx--- 805.3----wx
1994-09-29 06:00:00 5.5--- -8.2 0.637wxwxwx5wx--- 805.7 0.0---wx
1994-09-29 07:00:00 5.5--- -6.3 1.042wxwxwxwx7wx--- 805.9----wx
1994-09-29 08:00:00 5.4--- -2.2 2.358wxwxwxwx6wx--- 806.1----wx
1994-09-29 09:00:00 5.9--- -0.2 3.265wxwxwxwx5wx--- 806.4----wx
1994-09-29 10:00:00 6.6--- 1.3 4.169wxwxwxwx4wx--- 806.6----wx
1994-09-29 11:00:00 7.0--- 3.6 5.378wxwxwxwx4wx--- 806.5----wx
1994-09-29 12:00:00 8.0--- 5.1 6.582wxwxwx4wx--- 806.3 0.0---wx
1994-09-29 13:00:00 7.2--- 4.5 5.983wxwxwx5wx--- 806.3----wx
1994-09-29 14:00:00 7.3--- 4.6 6.083wxwxwx5wx--- 805.9----wx
1994-09-29 15:00:00 7.0--- 3.8 5.480wxwxwx4wx--- 805.8----wx
1994-09-29 16:00:00 7.6--- -0.9 3.955wxwxwxwx8wx--- 805.5----wx
1994-09-29 17:00:00 7.2--- 1.3 4.567wxwxwxwx9wx--- 805.8----wx
1994-09-29 18:00:00 7.3--- -3.0 3.148wxwxwxwx9wx--- 806.0 0.0---wx
1994-09-29 19:00:00 6.7--- -2.4 2.952wxwx4wx--- 806.4----wx
1994-09-29 20:00:00 6.1--- -2.4 2.554wxwx7wx--- 806.4----wx
1994-09-29 21:00:00 6.0--- -2.4 2.555wxwx6wx--- 806.2----wx
1994-09-29 22:00:00 5.8--- -2.7 2.355wxwx5wx--- 806.0----wx
1994-09-29 23:00:00 4.2--- 0.4 2.576wxwxwx4wx--- 805.9----wx

 

Źródłem pochodzenia danych jest Instytut Meteorologii i Gospodarki Wodnej – Państwowy Instytut Badawczy. Dane Instytutu Meteorologii i Gospodarki Wodnej – Państwowego Instytutu Badawczego zostały przetworzone.

Dane źródłowe można odnaleźć na stronie https://dane.imgw.pl